Time;durP1;ratioP1;P1;durP2;ratioP2;P2;SDS_P1;SDS_P2;PMS_P1;PMS_P2;Temp;Humidity;BMP_temperature;BMP_pressure;BME280_temperature;BME280_humidity;BME280_pressure;Samples;Min_cycle;Max_cycle;Signal;HPM_P1;HPM_P2
2020/12/04 00:01:05;;;;;;;38.00;15.65;;;4.10;75.70;;;;;;5045345;28;20459;-72
2020/12/04 00:03:31;;;;;;;38.38;15.23;;;4.10;75.60;;;;;;5045705;28;20505;-71
2020/12/04 00:05:57;;;;;;;39.05;14.68;;;4.10;75.30;;;;;;5051471;28;20062;-73
2020/12/04 00:08:22;;;;;;;43.33;16.00;;;4.10;75.20;;;;;;5055999;28;20152;-72
2020/12/04 00:10:48;;;;;;;36.70;14.70;;;4.00;75.10;;;;;;5056224;28;20365;-71
2020/12/04 00:13:14;;;;;;;41.70;16.25;;;4.00;75.40;;;;;;5055950;28;20373;-71
2020/12/04 00:15:39;;;;;;;41.25;15.48;;;3.90;75.70;;;;;;5056183;28;20104;-71
2020/12/04 00:18:05;;;;;;;36.35;14.65;;;3.90;75.60;;;;;;5056097;28;20341;-71
2020/12/04 00:20:31;;;;;;;36.67;13.93;;;4.00;75.90;;;;;;5054783;28;20020;-71
2020/12/04 00:22:56;;;;;;;34.50;14.65;;;4.00;76.00;;;;;;5055644;28;20033;-71
2020/12/04 00:25:22;;;;;;;36.50;14.85;;;4.00;75.80;;;;;;5056280;28;20032;-71
2020/12/04 00:27:48;;;;;;;37.85;15.65;;;4.00;75.70;;;;;;5055864;28;20411;-71
2020/12/04 00:30:14;;;;;;;36.70;15.40;;;3.90;75.70;;;;;;5055783;28;20076;-72
2020/12/04 00:32:39;;;;;;;41.63;15.77;;;3.90;75.80;;;;;;5055710;28;20028;-73
2020/12/04 00:35:05;;;;;;;35.28;14.50;;;3.90;75.90;;;;;;5055800;28;20024;-71
2020/12/04 00:37:30;;;;;;;40.80;15.55;;;4.00;76.40;;;;;;5055829;28;20105;-71
2020/12/04 00:39:56;;;;;;;42.05;15.20;;;4.00;75.80;;;;;;5054303;28;20435;-70
2020/12/04 00:42:22;;;;;;;39.50;15.02;;;4.00;75.60;;;;;;5055340;28;20021;-72
2020/12/04 00:44:47;;;;;;;34.47;13.98;;;3.90;75.40;;;;;;5056075;28;20025;-72
2020/12/04 00:47:13;;;;;;;35.15;14.15;;;3.90;75.60;;;;;;5055359;28;20448;-72
2020/12/04 00:49:39;;;;;;;31.85;14.05;;;3.90;75.60;;;;;;5054077;28;20025;-71
2020/12/04 00:52:05;;;;;;;31.10;12.48;;;3.80;75.80;;;;;;5055377;28;20026;-71
2020/12/04 00:54:30;;;;;;;35.30;14.02;;;3.80;75.90;;;;;;5054284;28;20044;-70
2020/12/04 00:56:56;;;;;;;36.60;14.70;;;3.80;75.80;;;;;;5055043;28;20017;-72
2020/12/04 00:59:22;;;;;;;39.05;14.57;;;3.80;75.70;;;;;;5055384;28;20028;-71
2020/12/04 01:01:48;;;;;;;35.47;14.68;;;3.80;75.80;;;;;;5054914;28;20035;-71
2020/12/04 01:04:13;;;;;;;35.40;15.45;;;3.80;75.70;;;;;;5055244;28;20023;-71
2020/12/04 01:06:39;;;;;;;40.65;16.15;;;3.70;75.90;;;;;;5055465;28;20017;-71
2020/12/04 01:09:06;;;;;;;39.70;15.70;;;3.70;76.10;;;;;;5053837;28;20461;-70
2020/12/04 01:11:32;;;;;;;43.35;15.68;;;3.80;76.40;;;;;;5054956;28;20074;-71
2020/12/04 01:13:58;;;;;;;39.65;17.40;;;3.80;76.20;;;;;;5054937;28;20036;-70
2020/12/04 01:16:24;;;;;;;46.33;17.40;;;3.80;75.90;;;;;;5055265;28;20025;-71
2020/12/04 01:18:50;;;;;;;48.53;18.35;;;3.70;75.90;;;;;;5054864;28;20021;-71
2020/12/04 01:21:16;;;;;;;45.67;17.98;;;3.70;76.20;;;;;;5055325;28;20021;-71
2020/12/04 01:23:41;;;;;;;51.30;18.33;;;3.70;76.30;;;;;;5054902;28;20029;-70
2020/12/04 01:26:08;;;;;;;47.90;18.88;;;3.70;76.50;;;;;;5055158;28;20029;-72
2020/12/04 01:28:34;;;;;;;46.85;18.30;;;3.70;76.70;;;;;;5053810;28;20473;-70
2020/12/04 01:31:00;;;;;;;50.67;19.00;;;3.70;76.70;;;;;;5055022;28;20054;-71
2020/12/04 01:33:25;;;;;;;51.53;19.77;;;3.80;76.70;;;;;;5053522;28;20116;-70
2020/12/04 01:35:51;;;;;;;47.40;17.10;;;3.80;76.50;;;;;;5055119;28;20047;-70
2020/12/04 01:38:17;;;;;;;46.55;17.77;;;3.80;76.40;;;;;;5054348;28;20029;-71
2020/12/04 01:40:42;;;;;;;56.22;18.63;;;3.80;76.40;;;;;;5054321;28;20036;-71
2020/12/04 01:43:08;;;;;;;74.53;19.80;;;3.80;76.20;;;;;;5054752;28;20599;-72
2020/12/04 01:45:37;;;;;;;59.20;20.00;;;3.70;76.20;;;;;;5053391;28;20047;-72
2020/12/04 01:48:06;;;;;;;65.43;19.83;;;3.70;76.40;;;;;;5054371;28;20021;-72
2020/12/04 01:50:32;;;;;;;71.72;22.73;;;3.70;76.70;;;;;;5054610;28;20536;-70
2020/12/04 01:52:59;;;;;;;87.72;24.90;;;3.60;76.70;;;;;;5053877;28;20468;-70
2020/12/04 01:55:26;;;;;;;94.15;27.00;;;3.60;76.90;;;;;;5054241;28;20029;-71
2020/12/04 01:57:53;;;;;;;79.10;23.55;;;3.60;77.20;;;;;;5054100;28;20079;-70
2020/12/04 02:00:20;;;;;;;84.82;25.67;;;3.70;77.10;;;;;;5053844;28;20037;-71
2020/12/04 02:02:46;;;;;;;86.05;26.45;;;3.70;77.10;;;;;;5054110;28;20104;-71
2020/12/04 02:05:12;;;;;;;82.47;25.80;;;3.70;77.00;;;;;;5053781;28;20461;-70
2020/12/04 02:08:07;;;;;;;97.60;25.70;;;3.70;77.30;;;;;;5052770;28;20104;-71
2020/12/04 02:10:44;;;;;;;79.60;25.80;;;3.80;77.30;;;;;;5045424;28;20028;-71
2020/12/04 02:13:11;;;;;;;84.88;27.45;;;3.70;76.60;;;;;;5053586;28;20583;-71
2020/12/04 02:15:37;;;;;;;120.95;30.55;;;3.70;77.10;;;;;;5053898;28;20388;-71
2020/12/04 02:18:04;;;;;;;83.28;26.30;;;3.70;77.20;;;;;;5053731;28;20028;-71
2020/12/04 02:20:33;;;;;;;87.10;26.38;;;3.70;76.80;;;;;;5053459;28;20464;-70
2020/12/04 02:23:00;;;;;;;90.43;27.45;;;3.70;77.00;;;;;;5053721;28;20024;-71
2020/12/04 02:25:25;;;;;;;87.97;27.23;;;3.70;77.20;;;;;;5053810;28;20039;-71
2020/12/04 02:27:51;;;;;;;90.55;29.63;;;3.60;77.30;;;;;;5053666;28;20116;-72
2020/12/04 02:30:22;;;;;;;94.50;29.52;;;3.70;77.30;;;;;;5053946;28;20119;-71
2020/12/04 02:32:47;;;;;;;93.63;28.13;;;3.60;77.20;;;;;;5053306;28;20024;-71
2020/12/04 02:35:13;;;;;;;124.57;27.73;;;3.60;77.20;;;;;;5053701;28;20051;-71
2020/12/04 02:37:39;;;;;;;119.35;29.08;;;3.60;77.40;;;;;;5053569;28;20475;-71
2020/12/04 02:40:05;;;;;;;152.02;31.95;;;3.60;77.30;;;;;;5053418;28;20107;-71
2020/12/04 02:42:31;;;;;;;134.75;32.58;;;3.60;77.20;;;;;;5053469;28;20467;-70
2020/12/04 02:44:56;;;;;;;137.05;33.92;;;3.60;77.60;;;;;;5053153;28;20032;-71
2020/12/04 02:47:26;;;;;;;189.73;39.45;;;3.60;77.80;;;;;;5053393;28;20475;-71
2020/12/04 02:49:52;;;;;;;154.10;35.60;;;3.60;78.00;;;;;;5053281;28;20356;-71
2020/12/04 02:52:24;;;;;;;129.80;32.80;;;3.60;77.70;;;;;;5053153;28;20032;-72
2020/12/04 02:54:50;;;;;;;137.77;32.20;;;3.60;77.50;;;;;;5053248;28;20150;-71
2020/12/04 02:57:16;;;;;;;117.10;31.55;;;3.60;77.60;;;;;;5053295;28;20045;-70
2020/12/04 02:59:43;;;;;;;171.90;34.40;;;3.70;77.70;;;;;;5052898;28;20032;-71
2020/12/04 03:02:09;;;;;;;142.93;31.60;;;3.70;77.90;;;;;;5053487;28;20047;-71
2020/12/04 03:04:35;;;;;;;128.13;32.67;;;3.70;77.90;;;;;;5053520;28;20029;-71
2020/12/04 03:07:01;;;;;;;173.07;37.05;;;3.70;77.70;;;;;;5053145;28;20047;-71
2020/12/04 03:09:26;;;;;;;160.02;32.50;;;3.70;77.60;;;;;;5053222;28;20075;-71
2020/12/04 03:11:57;;;;;;;194.55;33.03;;;3.70;77.70;;;;;;5054223;28;20551;-70
2020/12/04 03:14:23;;;;;;;169.38;31.50;;;3.70;77.70;;;;;;5057032;28;20167;-71
2020/12/04 03:16:49;;;;;;;132.93;29.48;;;3.70;77.80;;;;;;5057236;28;20031;-71
2020/12/04 03:19:15;;;;;;;133.13;26.42;;;3.70;77.80;;;;;;5057085;28;20104;-71
2020/12/04 03:21:40;;;;;;;191.10;32.03;;;3.70;77.50;;;;;;5055857;28;20021;-71
2020/12/04 03:24:06;;;;;;;176.07;32.15;;;3.70;77.30;;;;;;5056810;28;20024;-71
2020/12/04 03:26:32;;;;;;;147.30;30.35;;;3.70;77.70;;;;;;5056878;28;20113;-70
2020/12/04 03:28:57;;;;;;;153.15;32.33;;;3.70;78.10;;;;;;5057246;28;20021;-70
2020/12/04 03:31:23;;;;;;;152.38;31.85;;;3.70;77.90;;;;;;5056871;28;20041;-72
2020/12/04 03:33:49;;;;;;;110.38;28.85;;;3.70;77.90;;;;;;5056660;28;20036;-72
2020/12/04 03:36:14;;;;;;;103.95;29.45;;;3.80;78.00;;;;;;5056843;28;20048;-71
2020/12/04 03:38:40;;;;;;;149.98;32.10;;;3.80;78.00;;;;;;5056797;28;20100;-71
2020/12/04 03:41:06;;;;;;;119.90;33.85;;;3.80;78.10;;;;;;5055411;28;20021;-71
2020/12/04 03:43:31;;;;;;;145.38;34.17;;;3.80;77.50;;;;;;5056754;28;20025;-71
2020/12/04 03:45:57;;;;;;;100.82;30.52;;;3.70;77.10;;;;;;5056573;28;20025;-72
2020/12/04 03:48:23;;;;;;;111.53;33.38;;;3.60;77.30;;;;;;5056643;28;20028;-70
2020/12/04 03:50:48;;;;;;;106.70;30.55;;;3.60;77.50;;;;;;5055370;28;20027;-71
2020/12/04 03:53:14;;;;;;;106.60;29.10;;;3.60;77.80;;;;;;5054982;28;20468;-71
2020/12/04 03:55:40;;;;;;;104.97;30.45;;;3.60;77.80;;;;;;5056583;28;20032;-70
2020/12/04 03:58:05;;;;;;;134.07;32.20;;;3.60;77.50;;;;;;5056382;28;20357;-72
2020/12/04 04:00:31;;;;;;;100.90;30.60;;;3.60;77.80;;;;;;5056583;28;20352;-72
2020/12/04 04:02:57;;;;;;;105.47;30.52;;;3.60;78.20;;;;;;5054974;28;20491;-72
2020/12/04 04:05:23;;;;;;;101.57;30.00;;;3.60;78.50;;;;;;5056126;28;20057;-70
2020/12/04 04:07:52;;;;;;;121.47;29.73;;;3.70;78.80;;;;;;5055152;28;20021;-70
2020/12/04 04:10:18;;;;;;;107.90;30.83;;;3.80;78.40;;;;;;5056227;28;20099;-71
2020/12/04 04:12:43;;;;;;;111.78;31.85;;;3.80;78.20;;;;;;5056221;28;20017;-72
2020/12/04 04:15:09;;;;;;;127.85;33.17;;;3.80;77.70;;;;;;5056630;28;20025;-72
2020/12/04 04:17:35;;;;;;;119.45;33.60;;;3.70;78.30;;;;;;5056023;28;20021;-71
2020/12/04 04:20:00;;;;;;;114.30;33.65;;;3.70;77.70;;;;;;5055986;28;20440;-72
2020/12/04 04:22:26;;;;;;;111.15;31.05;;;3.70;77.70;;;;;;5055827;28;20028;-72
2020/12/04 04:24:52;;;;;;;99.05;32.35;;;3.70;77.80;;;;;;5056057;28;20017;-71
2020/12/04 04:27:17;;;;;;;113.28;32.55;;;3.70;77.70;;;;;;5055815;28;20025;-70
2020/12/04 04:29:43;;;;;;;113.03;32.95;;;3.60;77.40;;;;;;5054520;28;20045;-70
2020/12/04 04:32:09;;;;;;;90.25;30.08;;;3.60;77.50;;;;;;5055976;28;20087;-71
2020/12/04 04:34:35;;;;;;;100.10;31.77;;;3.60;77.80;;;;;;5055820;28;20373;-71
2020/12/04 04:37:00;;;;;;;98.95;32.35;;;3.60;77.80;;;;;;5055703;28;20113;-71
2020/12/04 04:39:26;;;;;;;89.10;30.50;;;3.60;78.40;;;;;;5055784;28;20024;-71
2020/12/04 04:41:58;;;;;;;86.07;29.73;;;3.60;78.30;;;;;;5055347;28;20021;-71
2020/12/04 04:44:24;;;;;;;96.18;30.13;;;3.60;78.00;;;;;;5055730;28;20032;-71
2020/12/04 04:47:05;;;;;;;119.95;31.75;;;3.70;77.90;;;;;;5055785;28;20027;-72
2020/12/04 04:49:42;;;;;;;96.72;29.92;;;3.70;77.80;;;;;;5056001;28;20049;-71
2020/12/04 04:52:08;;;;;;;85.13;27.42;;;3.70;78.30;;;;;;5055511;28;20364;-72
2020/12/04 04:54:36;;;;;;;87.25;27.92;;;3.70;78.20;;;;;;5055601;28;20025;-71
2020/12/04 04:57:03;;;;;;;88.38;29.40;;;3.70;77.50;;;;;;5054121;28;20021;-71
2020/12/04 04:59:28;;;;;;;101.65;31.13;;;3.70;77.30;;;;;;5055400;28;20118;-71
2020/12/04 05:01:54;;;;;;;86.18;29.48;;;3.70;77.20;;;;;;5055310;28;20057;-71
2020/12/04 05:04:20;;;;;;;94.30;28.25;;;3.60;77.20;;;;;;5054836;28;20025;-71
2020/12/04 05:06:46;;;;;;;102.90;34.10;;;3.60;77.40;;;;;;5055146;28;20025;-71
2020/12/04 05:09:19;;;;;;;90.25;29.40;;;3.60;77.70;;;;;;5053636;28;20021;-71
2020/12/04 05:11:57;;;;;;;87.35;29.27;;;3.60;77.70;;;;;;5055064;28;20020;-72
2020/12/04 05:14:24;;;;;;;83.05;30.73;;;3.60;78.00;;;;;;5054997;28;20099;-71
2020/12/04 05:16:53;;;;;;;86.03;28.70;;;3.60;78.00;;;;;;5054956;28;20468;-71
2020/12/04 05:19:33;;;;;;;87.55;29.50;;;3.70;77.90;;;;;;5055267;28;20368;-70
2020/12/04 05:22:10;;;;;;;85.32;26.52;;;3.60;77.40;;;;;;5054557;28;20464;-72
2020/12/04 05:24:35;;;;;;;82.20;27.52;;;3.60;77.40;;;;;;5055004;28;20029;-71
2020/12/04 05:27:19;;;;;;;81.20;29.25;;;3.60;77.10;;;;;;5054516;28;20047;-72
2020/12/04 05:29:45;;;;;;;93.03;30.65;;;3.60;77.10;;;;;;5054533;28;20037;-72
2020/12/04 05:32:15;;;;;;;79.75;29.70;;;3.50;77.50;;;;;;5054539;28;20024;-72
2020/12/04 05:34:40;;;;;;;92.47;32.70;;;3.60;77.40;;;;;;5054101;28;20021;-73
2020/12/04 05:37:09;;;;;;;88.95;30.65;;;3.50;77.40;;;;;;5054521;28;20580;-72
2020/12/04 05:39:48;;;;;;;82.50;30.00;;;3.50;77.40;;;;;;5054377;28;20108;-71
2020/12/04 05:42:29;;;;;;;81.10;28.48;;;3.50;77.60;;;;;;5052801;28;20112;-71
2020/12/04 05:44:55;;;;;;;89.10;29.00;;;3.50;77.50;;;;;;5054427;28;20325;-71
2020/12/04 05:47:33;;;;;;;90.53;29.88;;;3.50;77.30;;;;;;5052965;28;20021;-71
2020/12/04 05:49:59;;;;;;;93.25;29.10;;;3.40;77.00;;;;;;5052990;28;20029;-74
2020/12/04 05:52:25;;;;;;;92.43;30.38;;;3.40;77.30;;;;;;5053991;28;20107;-71
2020/12/04 05:54:51;;;;;;;84.20;30.85;;;3.40;77.40;;;;;;5052481;28;20021;-71
2020/12/04 05:57:21;;;;;;;86.15;31.83;;;3.40;77.80;;;;;;5053699;28;20025;-72
2020/12/04 05:59:48;;;;;;;96.82;33.15;;;3.40;77.60;;;;;;5048254;28;21054;-71
2020/12/04 06:02:14;;;;;;;95.03;33.10;;;3.40;77.60;;;;;;5032717;28;20156;-71
2020/12/04 06:04:42;;;;;;;94.53;33.35;;;3.50;78.40;;;;;;5034092;28;20021;-71
2020/12/04 06:07:12;;;;;;;80.55;31.00;;;3.50;77.90;;;;;;5033687;28;20102;-71
2020/12/04 06:09:42;;;;;;;87.15;32.13;;;3.60;78.20;;;;;;5034021;28;20032;-71
2020/12/04 06:12:13;;;;;;;85.65;30.67;;;3.60;78.10;;;;;;5033843;28;20036;-72
2020/12/04 06:14:39;;;;;;;92.78;31.75;;;3.70;77.90;;;;;;5033934;28;20060;-71
2020/12/04 06:17:05;;;;;;;85.38;30.25;;;3.70;77.10;;;;;;5033825;28;20076;-71
2020/12/04 06:19:36;;;;;;;90.50;32.35;;;3.70;76.70;;;;;;5034058;28;20041;-71
2020/12/04 06:22:04;;;;;;;82.53;31.77;;;3.60;77.00;;;;;;5033466;28;20068;-73
2020/12/04 06:24:30;;;;;;;79.70;29.58;;;3.60;77.30;;;;;;5034017;28;20029;-72
2020/12/04 06:26:56;;;;;;;89.50;32.67;;;3.70;77.10;;;;;;5033651;28;20025;-71
2020/12/04 06:29:21;;;;;;;86.78;31.52;;;3.60;76.90;;;;;;5033189;28;20025;-72
2020/12/04 06:31:47;;;;;;;91.05;32.38;;;3.70;77.00;;;;;;5033586;28;20029;-73
2020/12/04 06:34:21;;;;;;;85.75;32.78;;;3.70;77.20;;;;;;5033230;28;20033;-73
2020/12/04 06:36:48;;;;;;;82.18;31.50;;;3.70;77.10;;;;;;5033662;28;20495;-72
2020/12/04 06:39:29;;;;;;;72.35;28.90;;;3.80;77.30;;;;;;5033509;28;20076;-73
2020/12/04 06:41:56;;;;;;;83.00;30.27;;;3.80;76.60;;;;;;5033770;28;20440;-71
2020/12/04 06:44:23;;;;;;;77.90;30.33;;;3.70;76.30;;;;;;5032734;28;20113;-72
2020/12/04 06:47:00;;;;;;;77.68;29.25;;;3.70;76.70;;;;;;5030961;28;20044;-73
2020/12/04 06:49:36;;;;;;;88.50;30.00;;;3.70;76.80;;;;;;5035738;28;20017;-71
2020/12/04 06:52:09;;;;;;;85.38;31.63;;;3.80;77.10;;;;;;5042706;28;20108;-74
2020/12/04 06:54:44;;;;;;;87.38;31.48;;;3.70;76.40;;;;;;5043537;28;20310;-73
2020/12/04 06:57:10;;;;;;;75.85;30.48;;;3.70;76.30;;;;;;5034616;28;20104;-72
2020/12/04 06:59:38;;;;;;;86.72;30.98;;;3.70;76.80;;;;;;5041702;28;20032;-71
2020/12/04 07:02:20;;;;;;;79.45;29.13;;;3.70;76.70;;;;;;5043333;28;20029;-72
2020/12/04 07:04:47;;;;;;;77.57;28.65;;;3.70;76.30;;;;;;5038999;28;20445;-72
2020/12/04 07:07:17;;;;;;;88.30;31.17;;;3.70;76.40;;;;;;5042092;28;20013;-72
2020/12/04 07:09:52;;;;;;;94.03;31.85;;;3.60;76.50;;;;;;5038015;28;20024;-72
2020/12/04 07:12:20;;;;;;;101.88;33.17;;;3.60;76.60;;;;;;5032855;28;20025;-72
2020/12/04 07:14:50;;;;;;;93.50;33.22;;;3.70;77.10;;;;;;5033258;28;20018;-71
2020/12/04 07:17:20;;;;;;;98.68;32.00;;;3.70;76.80;;;;;;5033086;28;20018;-71
2020/12/04 07:19:50;;;;;;;90.28;31.95;;;3.70;77.00;;;;;;5032849;28;20021;-72
2020/12/04 07:22:16;;;;;;;91.57;34.38;;;3.80;77.20;;;;;;5033348;28;20036;-71
2020/12/04 07:24:46;;;;;;;91.78;31.73;;;3.80;77.00;;;;;;5032967;28;20022;-71
2020/12/04 07:27:32;;;;;;;93.85;31.95;;;3.90;76.90;;;;;;5033319;28;20017;-74
2020/12/04 07:29:58;;;;;;;90.07;29.65;;;3.90;76.50;;;;;;5032384;28;20045;-73
2020/12/04 07:32:25;;;;;;;86.13;29.85;;;3.90;76.00;;;;;;5032382;28;20031;-72
2020/12/04 07:34:51;;;;;;;72.80;28.23;;;3.80;76.00;;;;;;5032972;28;20033;-72
2020/12/04 07:37:17;;;;;;;78.75;26.63;;;3.90;76.40;;;;;;5031598;28;20030;-72
2020/12/04 07:39:44;;;;;;;73.70;28.02;;;3.90;76.40;;;;;;5032933;28;20026;-72
2020/12/04 07:42:12;;;;;;;72.60;28.33;;;3.80;76.20;;;;;;5032550;28;20469;-71
2020/12/04 07:44:40;;;;;;;72.53;24.65;;;3.80;76.20;;;;;;5032895;28;20033;-71
2020/12/04 07:47:12;;;;;;;77.65;28.25;;;3.80;76.10;;;;;;5032808;28;20025;-74
2020/12/04 07:49:42;;;;;;;72.50;26.70;;;3.80;75.90;;;;;;5032818;28;20029;-72
2020/12/04 07:52:20;;;;;;;73.22;27.13;;;3.80;76.60;;;;;;5032538;28;20408;-74
2020/12/04 07:54:49;;;;;;;64.97;25.65;;;3.90;76.30;;;;;;5032856;28;20171;-73
2020/12/04 07:57:24;;;;;;;70.15;25.17;;;3.90;76.00;;;;;;5034502;28;20453;-72
2020/12/04 07:59:51;;;;;;;67.32;26.27;;;3.90;75.90;;;;;;5044567;28;20067;-71
2020/12/04 08:02:23;;;;;;;69.20;24.88;;;3.90;75.70;;;;;;5044393;28;20411;-72
2020/12/04 08:04:49;;;;;;;63.88;26.90;;;3.80;75.60;;;;;;5044330;28;20103;-72
2020/12/04 08:07:15;;;;;;;77.10;26.88;;;3.80;75.80;;;;;;5044811;28;20093;-72
2020/12/04 08:09:42;;;;;;;64.40;24.48;;;3.80;76.40;;;;;;5045288;28;20116;-72
2020/12/04 08:12:20;;;;;;;67.15;25.98;;;3.90;76.30;;;;;;5042619;28;20071;-74
2020/12/04 08:14:55;;;;;;;65.18;24.75;;;3.90;76.20;;;;;;5045843;28;20025;-72
2020/12/04 08:17:23;;;;;;;59.47;23.00;;;4.00;76.20;;;;;;5044971;28;20465;-76
2020/12/04 08:19:49;;;;;;;59.20;24.67;;;4.10;75.90;;;;;;5043736;28;20021;-72
2020/12/04 08:22:15;;;;;;;59.92;24.25;;;4.10;76.00;;;;;;5044249;28;20334;-72
2020/12/04 08:24:50;;;;;;;51.58;21.25;;;4.10;75.80;;;;;;5045130;28;20037;-73
2020/12/04 08:27:17;;;;;;;52.35;20.95;;;4.10;75.40;;;;;;5044780;28;20053;-74
2020/12/04 08:30:00;;;;;;;48.25;20.85;;;4.20;75.10;;;;;;5044517;28;20135;-73
2020/12/04 08:32:26;;;;;;;52.70;20.90;;;4.20;74.90;;;;;;5044204;28;20025;-72
2020/12/04 08:35:25;;;;;;;51.35;21.23;;;4.10;75.00;;;;;;5038781;28;20025;-75
2020/12/04 08:37:52;;;;;;;45.65;19.75;;;4.20;75.70;;;;;;5038063;28;20112;-74
2020/12/04 08:40:29;;;;;;;51.83;21.52;;;4.30;75.90;;;;;;5043500;28;20356;-73
2020/12/04 08:43:15;;;;;;;48.80;20.23;;;4.40;75.40;;;;;;5045885;28;20048;-73
2020/12/04 08:45:43;;;;;;;38.53;18.30;;;4.50;75.00;;;;;;5045832;28;20056;-74
2020/12/04 08:48:20;;;;;;;48.72;20.40;;;4.50;75.00;;;;;;5043297;28;20025;-71
2020/12/04 08:50:48;;;;;;;45.40;19.17;;;4.60;74.30;;;;;;5042792;28;20394;-72
2020/12/04 08:53:16;;;;;;;41.05;18.75;;;4.60;74.50;;;;;;5044193;28;20075;-73
2020/12/04 08:55:53;;;;;;;38.05;17.88;;;4.60;73.70;;;;;;5043531;28;20026;-74
2020/12/04 08:58:21;;;;;;;42.53;19.33;;;4.60;73.90;;;;;;5041864;28;20104;-72
2020/12/04 09:00:48;;;;;;;44.28;19.17;;;4.50;73.40;;;;;;5039532;28;20025;-73
2020/12/04 09:03:15;;;;;;;52.10;21.45;;;4.50;73.10;;;;;;5043413;28;20017;-71
2020/12/04 09:05:41;;;;;;;46.83;19.90;;;4.40;73.30;;;;;;5043022;28;20108;-72
2020/12/04 09:08:07;;;;;;;50.42;19.92;;;4.40;73.60;;;;;;5044798;28;20456;-72
2020/12/04 09:10:36;;;;;;;50.17;20.75;;;4.40;73.50;;;;;;5042232;28;20370;-71
2020/12/04 09:13:03;;;;;;;51.20;21.67;;;4.40;73.30;;;;;;5048738;28;20025;-72
2020/12/04 09:15:30;;;;;;;51.90;21.67;;;4.40;73.60;;;;;;5053616;28;20071;-72
2020/12/04 09:17:56;;;;;;;47.20;21.45;;;4.40;73.30;;;;;;5055041;28;20334;-71
2020/12/04 09:20:24;;;;;;;49.85;22.27;;;4.40;73.20;;;;;;5054627;28;20025;-72
2020/12/04 09:22:50;;;;;;;51.60;21.95;;;4.30;73.50;;;;;;5054820;28;20025;-72
2020/12/04 09:25:18;;;;;;;52.05;22.20;;;4.30;73.50;;;;;;5055113;28;20027;-71
2020/12/04 09:27:44;;;;;;;46.03;21.15;;;4.30;73.60;;;;;;5055047;28;20423;-71
2020/12/04 09:30:12;;;;;;;43.30;19.83;;;4.40;73.90;;;;;;5054472;28;20373;-72
2020/12/04 09:32:38;;;;;;;52.38;22.65;;;4.40;73.40;;;;;;5054418;28;20020;-71
2020/12/04 09:35:05;;;;;;;49.05;21.27;;;4.30;73.40;;;;;;5054545;28;20048;-73
2020/12/04 09:37:36;;;;;;;43.85;21.08;;;4.30;73.30;;;;;;5054613;28;20032;-71
2020/12/04 09:40:08;;;;;;;53.78;22.40;;;4.30;73.40;;;;;;5054268;28;20302;-71
2020/12/04 09:42:35;;;;;;;49.95;21.25;;;4.30;73.40;;;;;;5054798;28;20059;-73
2020/12/04 09:45:01;;;;;;;48.25;21.70;;;4.30;73.60;;;;;;5054450;28;20021;-71
2020/12/04 09:47:30;;;;;;;46.70;21.63;;;4.30;73.40;;;;;;5054207;28;20025;-72
2020/12/04 09:49:56;;;;;;;44.25;20.33;;;4.30;73.40;;;;;;5047711;28;20021;-73
2020/12/04 09:52:22;;;;;;;48.55;21.60;;;4.30;73.60;;;;;;5035849;28;20421;-72
2020/12/04 09:54:48;;;;;;;49.63;22.75;;;4.40;73.70;;;;;;5034198;28;20033;-72
2020/12/04 09:57:15;;;;;;;46.95;20.65;;;4.40;73.70;;;;;;5033246;28;20017;-72
2020/12/04 09:59:42;;;;;;;50.17;22.60;;;4.50;73.70;;;;;;5034078;28;20353;-73
2020/12/04 10:02:09;;;;;;;48.90;23.52;;;4.50;73.30;;;;;;5034120;28;20433;-72
2020/12/04 10:04:38;;;;;;;60.53;26.73;;;4.50;73.50;;;;;;5034260;28;20453;-71
2020/12/04 10:07:06;;;;;;;60.22;27.50;;;4.50;73.80;;;;;;5032610;28;20025;-71
2020/12/04 10:09:32;;;;;;;63.97;29.15;;;4.50;73.80;;;;;;5033655;28;20096;-71
2020/12/04 10:12:06;;;;;;;68.90;29.60;;;4.60;73.90;;;;;;5034168;28;20120;-71
2020/12/04 10:14:35;;;;;;;56.95;26.00;;;4.70;73.40;;;;;;5034012;28;20025;-72
2020/12/04 10:17:03;;;;;;;48.70;21.52;;;4.70;73.50;;;;;;5033966;28;20029;-72
2020/12/04 10:19:34;;;;;;;47.45;22.63;;;4.80;73.00;;;;;;5034178;28;20397;-71
2020/12/04 10:22:04;;;;;;;37.60;17.98;;;4.80;73.00;;;;;;5033480;28;20025;-71
2020/12/04 10:24:31;;;;;;;46.65;18.98;;;4.80;72.70;;;;;;5033854;28;20076;-73
2020/12/04 10:26:57;;;;;;;39.38;18.23;;;4.80;72.40;;;;;;5033651;28;20429;-73
2020/12/04 10:29:23;;;;;;;40.30;18.33;;;4.80;72.40;;;;;;5031989;28;20068;-73
2020/12/04 10:31:50;;;;;;;45.25;19.67;;;4.70;71.90;;;;;;5033426;28;20049;-73
2020/12/04 10:34:17;;;;;;;36.95;18.35;;;4.70;72.40;;;;;;5033766;28;20029;-72
2020/12/04 10:36:43;;;;;;;37.92;19.42;;;4.70;72.20;;;;;;5033076;28;20417;-72
2020/12/04 10:39:11;;;;;;;41.60;19.60;;;4.70;71.90;;;;;;5031698;28;20068;-72
2020/12/04 10:41:40;;;;;;;43.35;20.88;;;4.70;72.30;;;;;;5033645;28;20021;-72
2020/12/04 10:44:07;;;;;;;37.30;18.65;;;4.80;73.00;;;;;;5032665;28;20370;-71
2020/12/04 10:46:34;;;;;;;40.72;18.98;;;4.90;72.80;;;;;;5038013;28;20025;-72
2020/12/04 10:48:59;;;;;;;41.13;19.45;;;5.00;72.20;;;;;;5043407;28;20062;-71
2020/12/04 10:51:25;;;;;;;39.75;18.58;;;5.00;72.30;;;;;;5041562;28;20396;-71
2020/12/04 10:53:52;;;;;;;39.33;19.90;;;5.00;71.90;;;;;;5040076;28;20024;-71
2020/12/04 10:56:20;;;;;;;40.85;19.13;;;5.00;71.40;;;;;;5037055;28;20086;-73
2020/12/04 10:58:46;;;;;;;40.13;18.30;;;5.00;71.40;;;;;;5041684;28;20021;-71
2020/12/04 11:01:14;;;;;;;34.13;18.10;;;5.00;71.60;;;;;;5041621;28;20085;-72
2020/12/04 11:05:29;;;;;;;45.05;20.30;;;5.00;71.70;;;;;;5046766;28;20040;-71
2020/12/04 11:06:26;;;;;;;39.45;18.80;;;5.00;70.90;;;;;;5051275;28;20036;-73
2020/12/04 11:08:52;;;;;;;42.85;19.52;;;4.90;71.10;;;;;;5053090;28;20021;-72
2020/12/04 11:11:21;;;;;;;38.80;18.02;;;4.90;71.20;;;;;;5052955;28;20025;-72
2020/12/04 11:13:47;;;;;;;41.03;18.88;;;4.80;70.90;;;;;;5052894;28;20031;-72
2020/12/04 11:16:14;;;;;;;41.22;18.73;;;4.70;71.20;;;;;;5052696;28;20025;-73
2020/12/04 11:18:39;;;;;;;35.42;17.20;;;4.70;71.60;;;;;;5053050;28;20025;-72
2020/12/04 11:21:05;;;;;;;40.78;19.15;;;4.70;71.50;;;;;;5047436;28;20159;-71
2020/12/04 11:23:31;;;;;;;38.83;17.30;;;4.70;71.40;;;;;;5042250;28;20057;-72
2020/12/04 11:25:56;;;;;;;41.95;17.33;;;4.70;71.20;;;;;;5042710;28;20043;-73
2020/12/04 11:28:22;;;;;;;37.75;17.48;;;4.70;71.40;;;;;;5042361;28;20028;-73
2020/12/04 11:30:48;;;;;;;35.47;16.73;;;4.60;71.40;;;;;;5042561;28;20048;-72
2020/12/04 11:33:13;;;;;;;42.17;18.52;;;4.60;71.20;;;;;;5042277;28;20481;-72
2020/12/04 11:35:39;;;;;;;37.42;17.45;;;4.60;71.50;;;;;;5041333;28;20074;-71
2020/12/04 11:38:06;;;;;;;39.20;17.55;;;4.60;71.50;;;;;;5043949;28;20024;-72
2020/12/04 11:40:32;;;;;;;37.63;18.25;;;4.60;71.80;;;;;;5043001;28;20024;-71
2020/12/04 11:42:58;;;;;;;38.30;19.67;;;4.60;72.00;;;;;;5036128;28;20033;-72
2020/12/04 11:45:24;;;;;;;45.88;18.13;;;4.70;72.20;;;;;;5044058;28;20048;-71
2020/12/04 11:47:50;;;;;;;43.47;18.48;;;4.80;72.40;;;;;;5040270;28;20044;-72
2020/12/04 11:50:16;;;;;;;37.63;17.60;;;4.80;71.50;;;;;;5041409;28;20096;-73
2020/12/04 11:52:43;;;;;;;44.30;19.27;;;4.80;71.40;;;;;;5045598;28;20017;-72
2020/12/04 11:55:10;;;;;;;38.35;18.27;;;4.70;71.00;;;;;;5045492;28;20021;-71
2020/12/04 11:57:38;;;;;;;46.08;19.27;;;4.70;71.10;;;;;;5046277;28;20123;-72
2020/12/04 12:00:09;;;;;;;39.95;18.40;;;4.60;71.30;;;;;;5047656;28;20016;-71
2020/12/04 12:02:35;;;;;;;38.85;17.65;;;4.60;71.50;;;;;;5056116;28;20415;-71
2020/12/04 12:05:01;;;;;;;45.13;18.90;;;4.60;71.50;;;;;;5049069;28;20025;-73
2020/12/04 12:07:26;;;;;;;41.88;17.67;;;4.60;71.70;;;;;;5032506;28;20524;-71
2020/12/04 12:09:52;;;;;;;45.65;18.90;;;4.60;71.90;;;;;;5044906;28;20087;-73
2020/12/04 12:12:19;;;;;;;46.90;20.45;;;4.60;71.60;;;;;;5045356;28;20040;-71
2020/12/04 12:14:45;;;;;;;50.85;21.80;;;4.60;71.10;;;;;;5044001;28;20017;-72
2020/12/04 12:17:15;;;;;;;54.80;22.75;;;4.50;70.90;;;;;;5043482;28;20100;-72
2020/12/04 12:19:42;;;;;;;63.05;25.42;;;4.40;71.20;;;;;;5042504;28;20033;-72
2020/12/04 12:22:09;;;;;;;58.17;24.88;;;4.40;71.70;;;;;;5044901;28;20021;-73
2020/12/04 12:24:42;;;;;;;64.88;25.38;;;4.40;71.60;;;;;;5046189;28;20021;-73
2020/12/04 12:27:09;;;;;;;69.68;26.75;;;4.30;71.60;;;;;;5035987;28;20017;-72
2020/12/04 12:29:35;;;;;;;86.82;31.17;;;4.30;71.70;;;;;;5035384;28;20017;-72
2020/12/04 12:32:03;;;;;;;100.63;36.58;;;4.30;71.70;;;;;;5035811;28;20044;-72
2020/12/04 12:37:13;;;;;;;111.55;39.22;;;4.30;72.00;;;;;;5035652;28;20116;-72
2020/12/04 12:39:39;;;;;;;112.20;38.20;;;4.20;71.90;;;;;;5034216;28;20018;-73
2020/12/04 12:42:07;;;;;;;106.82;38.70;;;4.20;72.10;;;;;;5034243;28;20025;-73